NCAR-RAP Real-Time Weather Data

Output produced by METARs form (17 September 2019  16:53 UTC)
found at http://weather.rap.ucar.edu/surface/
 
KPIR 171553Z AUTO 20010KT 10SM CLR 25/16 A2967 RMK AO2 SLP032 T02500161
KPIR 171453Z AUTO 20008KT 10SM CLR 23/16 A2968 RMK AO2 SLP036 T02330156 53005
KPIR 171353Z AUTO 15007KT 10SM CLR 20/16 A2967 RMK AO2 SLP034 T02000156
KPIR 171253Z AUTO 15007KT 10SM CLR 17/14 A2967 RMK AO2 SLP035 T01670139
KPIR 171153Z AUTO 14006KT 10SM CLR 17/14 A2966 RMK AO2 SLP032 T01670139 10233 20161 52003
KPIR 171053Z AUTO 16006KT 10SM CLR 18/14 A2966 RMK AO2 SLP030 T01830139
KPIR 170953Z AUTO 17008KT 10SM CLR 19/14 A2965 RMK AO2 SLP027 T01890144
KPIR 170853Z AUTO 16006KT 10SM CLR 18/15 A2965 RMK AO2 SLP026 T01780150 56004
KPIR 170753Z AUTO 15009KT 10SM CLR 20/16 A2965 RMK AO2 SLP025 T02000161
KPIR 170653Z AUTO 13005KT 10SM CLR 22/17 A2966 RMK AO2 SLP027 T02220167
KPIR 170553Z AUTO 07007KT 10SM CLR 22/18 A2967 RMK AO2 SLP029 T02170178 10267 20211 403060172 56012
KPIR 170453Z AUTO 12009KT 10SM CLR 23/18 A2968 RMK AO2 SLP034 T02280178
KPIR 170353Z AUTO 11009KT 10SM CLR 23/18 A2969 RMK AO2 SLP041 T02280178
KPIR 170253Z AUTO 12010KT 10SM CLR 23/18 A2970 RMK AO2 SLP046 T02280178 57004
KPIR 170053Z AUTO 11008KT 10SM CLR 24/18 A2971 RMK AO2 SLP048 T02390178
KPIR 162353Z AUTO 14011G21KT 10SM CLR 27/18 A2972 RMK AO2 PK WND 15027/2321 SLP049 T02670178 10306 20267 55004
KPIR 162253Z AUTO 16018KT 10SM CLR 28/17 A2971 RMK AO2 PK WND 16030/2236 SLP046 T02780167
KPIR 162153Z AUTO 15016G22KT 10SM CLR 28/17 A2971 RMK AO2 SLP047 T02830167
KPIR 162053Z AUTO 13007KT 10SM CLR 29/19 A2973 RMK AO2 SLP052 T02940194 58015